Hampton Falls, New Hampshire
Current Conditions -  °F | °C
As of 3:58 AM on Monday 22 Dec 2014 (Local Time) from KPSM Reporting Station
Overcast Overcast  
Wind Chill: 25°   Ceiling: 5500
Heat Index: 31°   Visibility: 10mi
Dew Point: 25°   Wind: 6mph
Humidity: 77%   Direction: 340°NNW
Pressure: 30.35"   Gusts: NA
Location:  42.92°N, 70.86°W
Report Text: KPSM 220858Z 34005KT 10SM OVC055 00/M04 A3035 RMK AO2A SLP282 T10051041 58003
Loading
Personal Weather Stations






























Interactive Weather Map New forecast layout! Learn more

10-Day Weather Forecast

Advertisements
Track Severe Weather on mobile